sensor_id;sensor_type;location;lat;lon;timestamp;temperature;humidity
24744;DHT22;12844;52.110;5.548;2022-08-11T00:01:20;26.70;53.30
24744;DHT22;12844;52.110;5.548;2022-08-11T00:03:49;26.70;53.30
24744;DHT22;12844;52.110;5.548;2022-08-11T00:06:44;26.70;53.30
24744;DHT22;12844;52.110;5.548;2022-08-11T00:09:12;26.70;53.30
24744;DHT22;12844;52.110;5.548;2022-08-11T00:11:43;26.70;53.30
24744;DHT22;12844;52.110;5.548;2022-08-11T00:14:18;26.70;53.30
24744;DHT22;12844;52.110;5.548;2022-08-11T00:16:57;26.70;53.30
24744;DHT22;12844;52.110;5.548;2022-08-11T00:19:25;26.70;53.30
24744;DHT22;12844;52.110;5.548;2022-08-11T00:21:53;26.70;53.40
24744;DHT22;12844;52.110;5.548;2022-08-11T00:24:19;26.70;53.40
24744;DHT22;12844;52.110;5.548;2022-08-11T00:26:50;26.60;53.30
24744;DHT22;12844;52.110;5.548;2022-08-11T00:29:17;26.70;53.40
24744;DHT22;12844;52.110;5.548;2022-08-11T00:31:51;26.60;53.40
24744;DHT22;12844;52.110;5.548;2022-08-11T00:34:20;26.70;53.40
24744;DHT22;12844;52.110;5.548;2022-08-11T00:37:04;26.70;53.40
24744;DHT22;12844;52.110;5.548;2022-08-11T00:39:34;26.70;53.50
24744;DHT22;12844;52.110;5.548;2022-08-11T00:42:25;26.60;53.40
24744;DHT22;12844;52.110;5.548;2022-08-11T00:45:08;26.60;53.40
24744;DHT22;12844;52.110;5.548;2022-08-11T00:56:12;26.60;53.50
24744;DHT22;12844;52.110;5.548;2022-08-11T01:27:03;26.50;53.60
24744;DHT22;12844;52.110;5.548;2022-08-11T01:32:26;26.50;53.60
24744;DHT22;12844;52.110;5.548;2022-08-11T01:44:11;26.50;53.50
24744;DHT22;12844;52.110;5.548;2022-08-11T01:59:10;26.40;53.60
24744;DHT22;12844;52.110;5.548;2022-08-11T02:10:38;26.50;53.50
24744;DHT22;12844;52.110;5.548;2022-08-11T02:13:50;26.40;53.40
24744;DHT22;12844;52.110;5.548;2022-08-11T02:25:26;26.40;53.40
24744;DHT22;12844;52.110;5.548;2022-08-11T02:28:06;26.40;53.50
24744;DHT22;12844;52.110;5.548;2022-08-11T02:30:39;26.40;53.50
24744;DHT22;12844;52.110;5.548;2022-08-11T02:33:22;26.40;53.40
24744;DHT22;12844;52.110;5.548;2022-08-11T03:46:09;26.40;53.10
24744;DHT22;12844;52.110;5.548;2022-08-11T03:51:24;26.40;53.10
24744;DHT22;12844;52.110;5.548;2022-08-11T03:54:13;26.40;53.20
24744;DHT22;12844;52.110;5.548;2022-08-11T04:00:18;26.40;53.20
24744;DHT22;12844;52.110;5.548;2022-08-11T04:14:36;26.30;53.30
24744;DHT22;12844;52.110;5.548;2022-08-11T04:26:24;26.20;53.20
24744;DHT22;12844;52.110;5.548;2022-08-11T04:34:11;26.30;53.30
24744;DHT22;12844;52.110;5.548;2022-08-11T04:36:52;26.30;53.20
24744;DHT22;12844;52.110;5.548;2022-08-11T04:43:17;26.30;53.20
24744;DHT22;12844;52.110;5.548;2022-08-11T05:01:05;26.20;53.20
24744;DHT22;12844;52.110;5.548;2022-08-11T05:10:27;26.20;53.10
24744;DHT22;12844;52.110;5.548;2022-08-11T05:13:00;26.20;53.00
24744;DHT22;12844;52.110;5.548;2022-08-11T05:15:59;26.20;53.10
24744;DHT22;12844;52.110;5.548;2022-08-11T05:18:49;26.20;52.40
24744;DHT22;12844;52.110;5.548;2022-08-11T05:21:35;26.20;50.00
24744;DHT22;12844;52.110;5.548;2022-08-11T05:24:22;26.20;49.00
24744;DHT22;12844;52.110;5.548;2022-08-11T05:27:09;26.10;47.60
24744;DHT22;12844;52.110;5.548;2022-08-11T05:30:08;26.10;47.50
24744;DHT22;12844;52.110;5.548;2022-08-11T05:33:02;26.10;47.40
24744;DHT22;12844;52.110;5.548;2022-08-11T05:35:49;25.80;47.70
24744;DHT22;12844;52.110;5.548;2022-08-11T05:38:23;25.70;47.90
24744;DHT22;12844;52.110;5.548;2022-08-11T05:41:11;25.70;48.10
24744;DHT22;12844;52.110;5.548;2022-08-11T05:43:58;25.50;48.20
24744;DHT22;12844;52.110;5.548;2022-08-11T05:46:43;25.40;48.50
24744;DHT22;12844;52.110;5.548;2022-08-11T05:49:32;25.30;48.80
24744;DHT22;12844;52.110;5.548;2022-08-11T05:52:20;25.30;49.50
24744;DHT22;12844;52.110;5.548;2022-08-11T05:55:06;25.40;49.00
24744;DHT22;12844;52.110;5.548;2022-08-11T05:58:05;25.40;49.10
24744;DHT22;12844;52.110;5.548;2022-08-11T06:00:40;25.40;49.10
24744;DHT22;12844;52.110;5.548;2022-08-11T06:03:07;25.40;49.10
24744;DHT22;12844;52.110;5.548;2022-08-11T06:05:37;25.30;49.40
24744;DHT22;12844;52.110;5.548;2022-08-11T06:08:06;25.30;49.60
24744;DHT22;12844;52.110;5.548;2022-08-11T06:10:38;25.30;49.50
24744;DHT22;12844;52.110;5.548;2022-08-11T06:13:06;25.30;49.50
24744;DHT22;12844;52.110;5.548;2022-08-11T06:15:33;25.40;49.50
24744;DHT22;12844;52.110;5.548;2022-08-11T06:18:00;25.40;49.50
24744;DHT22;12844;52.110;5.548;2022-08-11T06:20:28;25.40;49.40
24744;DHT22;12844;52.110;5.548;2022-08-11T06:23:02;25.40;49.60
24744;DHT22;12844;52.110;5.548;2022-08-11T06:25:30;25.40;49.60
24744;DHT22;12844;52.110;5.548;2022-08-11T06:27:57;25.40;49.60
24744;DHT22;12844;52.110;5.548;2022-08-11T06:30:39;25.50;49.60
24744;DHT22;12844;52.110;5.548;2022-08-11T06:33:38;25.60;49.50
24744;DHT22;12844;52.110;5.548;2022-08-11T06:36:45;25.60;49.20
24744;DHT22;12844;52.110;5.548;2022-08-11T06:41:58;25.50;49.10
24744;DHT22;12844;52.110;5.548;2022-08-11T06:44:51;25.50;48.90
24744;DHT22;12844;52.110;5.548;2022-08-11T06:47:20;25.60;48.80
24744;DHT22;12844;52.110;5.548;2022-08-11T06:49:47;25.50;48.90
24744;DHT22;12844;52.110;5.548;2022-08-11T06:52:35;25.60;48.80
24744;DHT22;12844;52.110;5.548;2022-08-11T06:55:14;25.70;48.60
24744;DHT22;12844;52.110;5.548;2022-08-11T06:58:18;25.70;48.90
24744;DHT22;12844;52.110;5.548;2022-08-11T07:01:10;25.70;49.40
24744;DHT22;12844;52.110;5.548;2022-08-11T07:03:43;25.70;48.90
24744;DHT22;12844;52.110;5.548;2022-08-11T07:09:08;25.80;49.30
24744;DHT22;12844;52.110;5.548;2022-08-11T07:15:13;25.80;49.70
24744;DHT22;12844;52.110;5.548;2022-08-11T07:18:03;25.80;49.90
24744;DHT22;12844;52.110;5.548;2022-08-11T07:20:53;25.90;49.90
24744;DHT22;12844;52.110;5.548;2022-08-11T07:23:39;25.90;50.10
24744;DHT22;12844;52.110;5.548;2022-08-11T07:26:25;25.90;50.10
24744;DHT22;12844;52.110;5.548;2022-08-11T07:29:11;25.90;50.20
24744;DHT22;12844;52.110;5.548;2022-08-11T07:31:43;26.00;50.30
24744;DHT22;12844;52.110;5.548;2022-08-11T07:36:58;26.00;50.30
24744;DHT22;12844;52.110;5.548;2022-08-11T07:39:26;26.00;50.40
24744;DHT22;12844;52.110;5.548;2022-08-11T07:41:54;26.10;50.50
24744;DHT22;12844;52.110;5.548;2022-08-11T07:44:22;26.10;50.50
24744;DHT22;12844;52.110;5.548;2022-08-11T07:46:54;26.10;50.60
24744;DHT22;12844;52.110;5.548;2022-08-11T07:49:39;26.10;50.60
24744;DHT22;12844;52.110;5.548;2022-08-11T07:52:29;26.10;50.70
24744;DHT22;12844;52.110;5.548;2022-08-11T07:55:05;26.10;50.70
24744;DHT22;12844;52.110;5.548;2022-08-11T07:57:32;26.10;50.70
24744;DHT22;12844;52.110;5.548;2022-08-11T08:00:18;26.10;50.80
24744;DHT22;12844;52.110;5.548;2022-08-11T08:03:04;26.10;50.80
24744;DHT22;12844;52.110;5.548;2022-08-11T08:05:49;26.20;50.90
24744;DHT22;12844;52.110;5.548;2022-08-11T08:08:35;26.20;50.90
24744;DHT22;12844;52.110;5.548;2022-08-11T08:11:20;26.20;50.90
24744;DHT22;12844;52.110;5.548;2022-08-11T08:14:07;26.20;50.90
24744;DHT22;12844;52.110;5.548;2022-08-11T08:16:53;26.20;50.90
24744;DHT22;12844;52.110;5.548;2022-08-11T08:19:37;26.20;50.90
24744;DHT22;12844;52.110;5.548;2022-08-11T08:22:04;26.20;50.90
24744;DHT22;12844;52.110;5.548;2022-08-11T08:24:30;26.20;50.90
24744;DHT22;12844;52.110;5.548;2022-08-11T08:26:57;26.20;50.80
24744;DHT22;12844;52.110;5.548;2022-08-11T08:29:32;26.20;50.80
24744;DHT22;12844;52.110;5.548;2022-08-11T08:32:19;26.30;51.60
24744;DHT22;12844;52.110;5.548;2022-08-11T08:34:50;26.30;51.00
24744;DHT22;12844;52.110;5.548;2022-08-11T08:37:22;26.30;51.00
24744;DHT22;12844;52.110;5.548;2022-08-11T08:39:49;26.30;51.00
24744;DHT22;12844;52.110;5.548;2022-08-11T08:42:23;26.30;51.00
24744;DHT22;12844;52.110;5.548;2022-08-11T08:45:10;26.40;51.00
24744;DHT22;12844;52.110;5.548;2022-08-11T08:47:40;26.40;51.00
24744;DHT22;12844;52.110;5.548;2022-08-11T08:50:14;26.40;51.10
24744;DHT22;12844;52.110;5.548;2022-08-11T08:52:58;26.40;51.10
24744;DHT22;12844;52.110;5.548;2022-08-11T08:55:26;26.40;51.00
24744;DHT22;12844;52.110;5.548;2022-08-11T08:57:55;26.50;51.10
24744;DHT22;12844;52.110;5.548;2022-08-11T09:00:25;26.50;51.10
24744;DHT22;12844;52.110;5.548;2022-08-11T09:03:01;26.50;51.20
24744;DHT22;12844;52.110;5.548;2022-08-11T09:05:27;26.50;51.20
24744;DHT22;12844;52.110;5.548;2022-08-11T09:07:54;26.60;51.20
24744;DHT22;12844;52.110;5.548;2022-08-11T09:10:22;26.60;51.40
24744;DHT22;12844;52.110;5.548;2022-08-11T09:12:49;26.60;51.50
24744;DHT22;12844;52.110;5.548;2022-08-11T09:15:15;26.60;52.30
24744;DHT22;12844;52.110;5.548;2022-08-11T09:17:54;26.60;51.70
24744;DHT22;12844;52.110;5.548;2022-08-11T09:20:30;26.70;51.70
24744;DHT22;12844;52.110;5.548;2022-08-11T09:23:02;26.70;51.70
24744;DHT22;12844;52.110;5.548;2022-08-11T09:25:48;26.70;51.70
24744;DHT22;12844;52.110;5.548;2022-08-11T09:28:32;26.70;51.70
24744;DHT22;12844;52.110;5.548;2022-08-11T09:31:01;26.70;51.90
24744;DHT22;12844;52.110;5.548;2022-08-11T09:33:28;26.70;51.90
24744;DHT22;12844;52.110;5.548;2022-08-11T09:35:55;26.70;51.80
24744;DHT22;12844;52.110;5.548;2022-08-11T09:38:23;26.80;51.90
24744;DHT22;12844;52.110;5.548;2022-08-11T09:41:10;26.80;51.90
24744;DHT22;12844;52.110;5.548;2022-08-11T09:43:43;26.90;51.80
24744;DHT22;12844;52.110;5.548;2022-08-11T09:46:28;26.90;51.70
24744;DHT22;12844;52.110;5.548;2022-08-11T09:48:57;26.90;51.70
24744;DHT22;12844;52.110;5.548;2022-08-11T09:51:24;26.90;51.80
24744;DHT22;12844;52.110;5.548;2022-08-11T09:53:51;26.90;51.80
24744;DHT22;12844;52.110;5.548;2022-08-11T09:56:20;27.00;51.80
24744;DHT22;12844;52.110;5.548;2022-08-11T09:59:06;26.90;51.80
24744;DHT22;12844;52.110;5.548;2022-08-11T10:01:42;26.90;52.10
24744;DHT22;12844;52.110;5.548;2022-08-11T10:04:14;26.90;52.20
24744;DHT22;12844;52.110;5.548;2022-08-11T10:06:43;26.90;51.80
24744;DHT22;12844;52.110;5.548;2022-08-11T10:09:39;26.90;51.70
24744;DHT22;12844;52.110;5.548;2022-08-11T10:12:23;26.90;51.70
24744;DHT22;12844;52.110;5.548;2022-08-11T10:14:53;27.00;51.70
24744;DHT22;12844;52.110;5.548;2022-08-11T10:17:42;26.90;52.00
24744;DHT22;12844;52.110;5.548;2022-08-11T10:20:29;26.90;51.90
24744;DHT22;12844;52.110;5.548;2022-08-11T10:22:57;26.90;52.00
24744;DHT22;12844;52.110;5.548;2022-08-11T10:25:42;26.90;52.10
24744;DHT22;12844;52.110;5.548;2022-08-11T10:28:26;27.00;52.10
24744;DHT22;12844;52.110;5.548;2022-08-11T10:30:53;27.00;52.40
24744;DHT22;12844;52.110;5.548;2022-08-11T10:33:38;27.00;52.40
24744;DHT22;12844;52.110;5.548;2022-08-11T10:36:22;27.00;52.50
24744;DHT22;12844;52.110;5.548;2022-08-11T10:38:49;27.00;52.50
24744;DHT22;12844;52.110;5.548;2022-08-11T10:41:17;27.00;52.50
24744;DHT22;12844;52.110;5.548;2022-08-11T10:44:02;27.00;52.50
24744;DHT22;12844;52.110;5.548;2022-08-11T10:46:29;27.00;52.60
24744;DHT22;12844;52.110;5.548;2022-08-11T10:49:15;27.00;52.60
24744;DHT22;12844;52.110;5.548;2022-08-11T10:51:41;27.00;52.70
24744;DHT22;12844;52.110;5.548;2022-08-11T10:54:26;27.10;52.50
24744;DHT22;12844;52.110;5.548;2022-08-11T10:57:11;27.10;52.50
24744;DHT22;12844;52.110;5.548;2022-08-11T10:59:58;27.10;52.70
24744;DHT22;12844;52.110;5.548;2022-08-11T11:02:23;27.10;53.30
24744;DHT22;12844;52.110;5.548;2022-08-11T11:05:06;27.10;52.60
24744;DHT22;12844;52.110;5.548;2022-08-11T11:07:38;27.10;52.10
24744;DHT22;12844;52.110;5.548;2022-08-11T11:10:05;27.20;52.00
24744;DHT22;12844;52.110;5.548;2022-08-11T11:12:38;27.20;52.50
24744;DHT22;12844;52.110;5.548;2022-08-11T11:15:23;27.20;52.60
24744;DHT22;12844;52.110;5.548;2022-08-11T11:21:09;27.20;52.50
24744;DHT22;12844;52.110;5.548;2022-08-11T11:37:32;27.20;52.70
24744;DHT22;12844;52.110;5.548;2022-08-11T11:40:08;27.20;52.60
24744;DHT22;12844;52.110;5.548;2022-08-11T11:42:39;27.20;52.70
24744;DHT22;12844;52.110;5.548;2022-08-11T11:45:07;27.20;52.70
24744;DHT22;12844;52.110;5.548;2022-08-11T11:47:34;27.30;52.40
24744;DHT22;12844;52.110;5.548;2022-08-11T11:50:02;27.30;52.40
24744;DHT22;12844;52.110;5.548;2022-08-11T11:52:29;27.30;52.50
24744;DHT22;12844;52.110;5.548;2022-08-11T11:54:56;27.30;52.40
24744;DHT22;12844;52.110;5.548;2022-08-11T11:57:23;27.30;52.40
24744;DHT22;12844;52.110;5.548;2022-08-11T12:00:10;27.30;52.50
24744;DHT22;12844;52.110;5.548;2022-08-11T12:03:01;27.30;51.80
24744;DHT22;12844;52.110;5.548;2022-08-11T12:05:27;27.30;51.50
24744;DHT22;12844;52.110;5.548;2022-08-11T12:07:55;27.30;51.50
24744;DHT22;12844;52.110;5.548;2022-08-11T12:11:01;27.30;51.70
24744;DHT22;12844;52.110;5.548;2022-08-11T12:13:49;27.30;52.20
24744;DHT22;12844;52.110;5.548;2022-08-11T12:16:18;27.20;52.50
24744;DHT22;12844;52.110;5.548;2022-08-11T12:18:46;27.30;52.50
24744;DHT22;12844;52.110;5.548;2022-08-11T12:21:14;27.30;52.00
24744;DHT22;12844;52.110;5.548;2022-08-11T12:23:41;27.30;51.00
24744;DHT22;12844;52.110;5.548;2022-08-11T12:26:25;27.40;51.60
24744;DHT22;12844;52.110;5.548;2022-08-11T12:29:22;27.40;51.80
24744;DHT22;12844;52.110;5.548;2022-08-11T12:31:54;27.40;52.20
24744;DHT22;12844;52.110;5.548;2022-08-11T12:34:20;27.30;52.20
24744;DHT22;12844;52.110;5.548;2022-08-11T12:36:58;27.30;52.10
24744;DHT22;12844;52.110;5.548;2022-08-11T12:39:33;27.30;52.00
24744;DHT22;12844;52.110;5.548;2022-08-11T12:42:17;27.40;51.90
24744;DHT22;12844;52.110;5.548;2022-08-11T12:45:04;27.30;52.30
24744;DHT22;12844;52.110;5.548;2022-08-11T12:47:51;27.20;52.30
24744;DHT22;12844;52.110;5.548;2022-08-11T12:50:36;27.20;52.40
24744;DHT22;12844;52.110;5.548;2022-08-11T12:53:23;27.20;52.40
24744;DHT22;12844;52.110;5.548;2022-08-11T12:55:52;27.20;52.40
24744;DHT22;12844;52.110;5.548;2022-08-11T12:58:40;27.20;52.20
24744;DHT22;12844;52.110;5.548;2022-08-11T13:01:06;27.30;52.30
24744;DHT22;12844;52.110;5.548;2022-08-11T13:03:51;27.30;52.30
24744;DHT22;12844;52.110;5.548;2022-08-11T13:06:35;27.20;52.30
24744;DHT22;12844;52.110;5.548;2022-08-11T13:09:02;27.30;52.30
24744;DHT22;12844;52.110;5.548;2022-08-11T13:11:29;27.40;52.20
24744;DHT22;12844;52.110;5.548;2022-08-11T13:14:14;27.50;52.10
24744;DHT22;12844;52.110;5.548;2022-08-11T13:16:41;27.60;52.00
24744;DHT22;12844;52.110;5.548;2022-08-11T13:19:26;27.70;52.00
24744;DHT22;12844;52.110;5.548;2022-08-11T13:21:52;27.80;51.90
24744;DHT22;12844;52.110;5.548;2022-08-11T13:24:19;27.80;51.90
24744;DHT22;12844;52.110;5.548;2022-08-11T13:26:46;27.80;51.80
24744;DHT22;12844;52.110;5.548;2022-08-11T13:29:12;27.80;51.80
24744;DHT22;12844;52.110;5.548;2022-08-11T13:31:39;27.80;51.90
24744;DHT22;12844;52.110;5.548;2022-08-11T13:34:08;27.80;51.90
24744;DHT22;12844;52.110;5.548;2022-08-11T13:36:34;27.80;51.90
24744;DHT22;12844;52.110;5.548;2022-08-11T13:39:01;27.80;52.00
24744;DHT22;12844;52.110;5.548;2022-08-11T13:41:28;27.70;52.00
24744;DHT22;12844;52.110;5.548;2022-08-11T13:44:10;27.70;52.10
24744;DHT22;12844;52.110;5.548;2022-08-11T13:46:38;27.70;52.40
24744;DHT22;12844;52.110;5.548;2022-08-11T13:49:05;27.60;52.30
24744;DHT22;12844;52.110;5.548;2022-08-11T13:51:33;27.60;52.20
24744;DHT22;12844;52.110;5.548;2022-08-11T13:54:08;27.60;52.40
24744;DHT22;12844;52.110;5.548;2022-08-11T13:56:37;27.60;52.30
24744;DHT22;12844;52.110;5.548;2022-08-11T13:59:04;27.60;52.50
24744;DHT22;12844;52.110;5.548;2022-08-11T14:01:38;27.50;52.60
24744;DHT22;12844;52.110;5.548;2022-08-11T14:04:08;27.50;52.50
24744;DHT22;12844;52.110;5.548;2022-08-11T14:06:37;27.50;52.50
24744;DHT22;12844;52.110;5.548;2022-08-11T14:09:07;27.40;52.50
24744;DHT22;12844;52.110;5.548;2022-08-11T14:11:34;27.40;52.50
24744;DHT22;12844;52.110;5.548;2022-08-11T14:14:22;27.50;52.70
24744;DHT22;12844;52.110;5.548;2022-08-11T14:16:51;27.40;52.50
24744;DHT22;12844;52.110;5.548;2022-08-11T14:19:22;27.40;52.70
24744;DHT22;12844;52.110;5.548;2022-08-11T14:21:50;27.40;52.20
24744;DHT22;12844;52.110;5.548;2022-08-11T14:24:39;27.50;51.70
24744;DHT22;12844;52.110;5.548;2022-08-11T14:27:08;27.40;52.10
24744;DHT22;12844;52.110;5.548;2022-08-11T14:29:34;27.40;52.90
24744;DHT22;12844;52.110;5.548;2022-08-11T14:32:05;27.40;53.10
24744;DHT22;12844;52.110;5.548;2022-08-11T14:34:32;27.40;52.90
24744;DHT22;12844;52.110;5.548;2022-08-11T14:37:02;27.40;53.00
24744;DHT22;12844;52.110;5.548;2022-08-11T14:39:33;27.40;53.50
24744;DHT22;12844;52.110;5.548;2022-08-11T14:42:02;27.40;55.10
24744;DHT22;12844;52.110;5.548;2022-08-11T14:44:55;27.40;54.70
24744;DHT22;12844;52.110;5.548;2022-08-11T14:47:40;27.40;54.80
24744;DHT22;12844;52.110;5.548;2022-08-11T14:50:12;27.30;54.70
24744;DHT22;12844;52.110;5.548;2022-08-11T14:52:43;27.40;55.00
24744;DHT22;12844;52.110;5.548;2022-08-11T14:55:11;27.40;54.90
24744;DHT22;12844;52.110;5.548;2022-08-11T14:57:55;27.40;54.80
24744;DHT22;12844;52.110;5.548;2022-08-11T15:00:21;27.40;54.80
24744;DHT22;12844;52.110;5.548;2022-08-11T15:02:47;27.40;54.80
24744;DHT22;12844;52.110;5.548;2022-08-11T15:05:43;27.40;54.80
24744;DHT22;12844;52.110;5.548;2022-08-11T15:08:12;27.40;54.60
24744;DHT22;12844;52.110;5.548;2022-08-11T15:10:39;27.40;54.50
24744;DHT22;12844;52.110;5.548;2022-08-11T15:13:05;27.40;54.50
24744;DHT22;12844;52.110;5.548;2022-08-11T15:15:32;27.40;54.40
24744;DHT22;12844;52.110;5.548;2022-08-11T15:18:18;27.40;54.20
24744;DHT22;12844;52.110;5.548;2022-08-11T15:20:44;27.40;54.90
24744;DHT22;12844;52.110;5.548;2022-08-11T15:23:29;27.40;55.50
24744;DHT22;12844;52.110;5.548;2022-08-11T15:26:37;27.40;55.40
24744;DHT22;12844;52.110;5.548;2022-08-11T15:29:24;27.40;55.30
24744;DHT22;12844;52.110;5.548;2022-08-11T15:32:11;27.40;55.50
24744;DHT22;12844;52.110;5.548;2022-08-11T15:34:50;27.40;55.40
24744;DHT22;12844;52.110;5.548;2022-08-11T15:37:36;27.40;55.50
24744;DHT22;12844;52.110;5.548;2022-08-11T15:40:12;27.40;55.60
24744;DHT22;12844;52.110;5.548;2022-08-11T15:43:45;27.40;55.60
24744;DHT22;12844;52.110;5.548;2022-08-11T15:46:13;27.40;55.70
24744;DHT22;12844;52.110;5.548;2022-08-11T15:48:48;27.50;55.30
24744;DHT22;12844;52.110;5.548;2022-08-11T15:51:20;27.50;55.30
24744;DHT22;12844;52.110;5.548;2022-08-11T15:53:57;27.40;55.00
24744;DHT22;12844;52.110;5.548;2022-08-11T15:56:26;27.50;55.60
24744;DHT22;12844;52.110;5.548;2022-08-11T15:58:55;27.50;55.60
24744;DHT22;12844;52.110;5.548;2022-08-11T16:01:42;27.50;55.50
24744;DHT22;12844;52.110;5.548;2022-08-11T16:04:30;27.50;55.60
24744;DHT22;12844;52.110;5.548;2022-08-11T16:07:00;27.40;55.60
24744;DHT22;12844;52.110;5.548;2022-08-11T16:19:50;27.40;55.70
24744;DHT22;12844;52.110;5.548;2022-08-11T16:22:21;27.40;55.70
24744;DHT22;12844;52.110;5.548;2022-08-11T16:24:57;27.40;55.70
24744;DHT22;12844;52.110;5.548;2022-08-11T16:27:24;27.40;55.70
24744;DHT22;12844;52.110;5.548;2022-08-11T16:29:50;27.50;55.80
24744;DHT22;12844;52.110;5.548;2022-08-11T16:32:21;27.50;55.90
24744;DHT22;12844;52.110;5.548;2022-08-11T16:35:00;27.40;55.80
24744;DHT22;12844;52.110;5.548;2022-08-11T16:37:46;27.50;55.90
24744;DHT22;12844;52.110;5.548;2022-08-11T16:56:02;27.40;56.10
24744;DHT22;12844;52.110;5.548;2022-08-11T16:58:30;27.40;56.10
24744;DHT22;12844;52.110;5.548;2022-08-11T17:01:20;27.40;56.10
24744;DHT22;12844;52.110;5.548;2022-08-11T17:03:51;27.40;56.10
24744;DHT22;12844;52.110;5.548;2022-08-11T17:06:40;27.40;56.10
24744;DHT22;12844;52.110;5.548;2022-08-11T17:09:25;27.40;56.30
24744;DHT22;12844;52.110;5.548;2022-08-11T17:12:12;27.40;56.30
24744;DHT22;12844;52.110;5.548;2022-08-11T17:15:00;27.30;56.20
24744;DHT22;12844;52.110;5.548;2022-08-11T17:17:35;27.30;56.20
24744;DHT22;12844;52.110;5.548;2022-08-11T18:29:57;27.30;56.60
24744;DHT22;12844;52.110;5.548;2022-08-11T18:32:45;27.40;56.70
24744;DHT22;12844;52.110;5.548;2022-08-11T18:35:31;27.30;56.70
24744;DHT22;12844;52.110;5.548;2022-08-11T18:38:17;27.30;57.40
24744;DHT22;12844;52.110;5.548;2022-08-11T18:41:04;27.30;56.80
24744;DHT22;12844;52.110;5.548;2022-08-11T18:43:50;27.30;56.90
24744;DHT22;12844;52.110;5.548;2022-08-11T18:46:37;27.30;56.90
24744;DHT22;12844;52.110;5.548;2022-08-11T20:36:54;27.30;54.20
24744;DHT22;12844;52.110;5.548;2022-08-11T20:39:40;27.30;52.20
24744;DHT22;12844;52.110;5.548;2022-08-11T20:42:27;27.30;50.80
24744;DHT22;12844;52.110;5.548;2022-08-11T20:45:13;27.30;51.00
24744;DHT22;12844;52.110;5.548;2022-08-11T20:47:59;27.30;50.20
24744;DHT22;12844;52.110;5.548;2022-08-11T20:50:46;27.20;50.70
24744;DHT22;12844;52.110;5.548;2022-08-11T20:53:31;27.30;53.10
24744;DHT22;12844;52.110;5.548;2022-08-11T20:56:18;27.30;53.00
24744;DHT22;12844;52.110;5.548;2022-08-11T20:59:03;27.30;53.70
24744;DHT22;12844;52.110;5.548;2022-08-11T21:01:48;27.30;54.10
24744;DHT22;12844;52.110;5.548;2022-08-11T21:04:32;27.30;54.40
24744;DHT22;12844;52.110;5.548;2022-08-11T21:07:17;27.30;54.50
24744;DHT22;12844;52.110;5.548;2022-08-11T21:10:03;27.30;54.40
24744;DHT22;12844;52.110;5.548;2022-08-11T21:12:48;27.30;54.60
24744;DHT22;12844;52.110;5.548;2022-08-11T21:15:35;27.30;54.60
24744;DHT22;12844;52.110;5.548;2022-08-11T21:18:22;27.30;54.60
24744;DHT22;12844;52.110;5.548;2022-08-11T21:21:11;27.30;54.60
24744;DHT22;12844;52.110;5.548;2022-08-11T21:23:56;27.30;54.40
24744;DHT22;12844;52.110;5.548;2022-08-11T21:26:43;27.30;53.90
24744;DHT22;12844;52.110;5.548;2022-08-11T21:29:30;27.30;53.70
24744;DHT22;12844;52.110;5.548;2022-08-11T21:32:17;27.30;54.30
24744;DHT22;12844;52.110;5.548;2022-08-11T21:35:02;27.30;54.50
24744;DHT22;12844;52.110;5.548;2022-08-11T21:37:49;27.30;54.50
24744;DHT22;12844;52.110;5.548;2022-08-11T21:40:34;27.30;54.40
24744;DHT22;12844;52.110;5.548;2022-08-11T21:43:19;27.30;54.40
24744;DHT22;12844;52.110;5.548;2022-08-11T21:46:04;27.30;54.60
24744;DHT22;12844;52.110;5.548;2022-08-11T21:48:52;27.30;54.50
24744;DHT22;12844;52.110;5.548;2022-08-11T21:51:37;27.30;54.50
24744;DHT22;12844;52.110;5.548;2022-08-11T21:54:23;27.30;54.40
24744;DHT22;12844;52.110;5.548;2022-08-11T21:57:09;27.30;54.30
24744;DHT22;12844;52.110;5.548;2022-08-11T21:59:56;27.30;54.40
24744;DHT22;12844;52.110;5.548;2022-08-11T22:02:45;27.30;54.40
24744;DHT22;12844;52.110;5.548;2022-08-11T22:05:32;27.20;54.30
24744;DHT22;12844;52.110;5.548;2022-08-11T22:08:16;27.20;54.10
24744;DHT22;12844;52.110;5.548;2022-08-11T22:11:01;27.30;54.20
24744;DHT22;12844;52.110;5.548;2022-08-11T22:13:45;27.20;54.30
24744;DHT22;12844;52.110;5.548;2022-08-11T22:16:30;27.20;54.70
24744;DHT22;12844;52.110;5.548;2022-08-11T22:19:15;27.20;54.50
24744;DHT22;12844;52.110;5.548;2022-08-11T22:22:00;27.20;54.30
24744;DHT22;12844;52.110;5.548;2022-08-11T22:24:45;27.20;54.80
24744;DHT22;12844;52.110;5.548;2022-08-11T22:27:30;27.20;54.80
24744;DHT22;12844;52.110;5.548;2022-08-11T22:30:15;27.20;54.80
24744;DHT22;12844;52.110;5.548;2022-08-11T22:33:00;27.20;54.70
24744;DHT22;12844;52.110;5.548;2022-08-11T22:35:46;27.20;54.60
24744;DHT22;12844;52.110;5.548;2022-08-11T22:38:32;27.20;54.50
24744;DHT22;12844;52.110;5.548;2022-08-11T22:41:17;27.20;55.20
24744;DHT22;12844;52.110;5.548;2022-08-11T22:44:03;27.20;55.70
24744;DHT22;12844;52.110;5.548;2022-08-11T22:46:49;27.20;55.80
24744;DHT22;12844;52.110;5.548;2022-08-11T22:49:34;27.20;55.80
24744;DHT22;12844;52.110;5.548;2022-08-11T22:52:19;27.20;55.80
24744;DHT22;12844;52.110;5.548;2022-08-11T22:55:05;27.20;55.80
24744;DHT22;12844;52.110;5.548;2022-08-11T22:57:50;27.20;55.80
24744;DHT22;12844;52.110;5.548;2022-08-11T23:00:34;27.20;56.40
24744;DHT22;12844;52.110;5.548;2022-08-11T23:03:19;27.10;55.70
24744;DHT22;12844;52.110;5.548;2022-08-11T23:06:04;27.20;55.80
24744;DHT22;12844;52.110;5.548;2022-08-11T23:08:48;27.20;55.80
24744;DHT22;12844;52.110;5.548;2022-08-11T23:11:34;27.10;55.70
24744;DHT22;12844;52.110;5.548;2022-08-11T23:14:20;27.10;55.60
24744;DHT22;12844;52.110;5.548;2022-08-11T23:17:05;27.10;55.70
24744;DHT22;12844;52.110;5.548;2022-08-11T23:19:50;27.10;55.60
24744;DHT22;12844;52.110;5.548;2022-08-11T23:22:36;27.10;55.60
24744;DHT22;12844;52.110;5.548;2022-08-11T23:25:20;27.10;55.60
24744;DHT22;12844;52.110;5.548;2022-08-11T23:28:06;27.10;55.60
24744;DHT22;12844;52.110;5.548;2022-08-11T23:30:53;27.10;55.50
24744;DHT22;12844;52.110;5.548;2022-08-11T23:33:44;27.10;55.50
24744;DHT22;12844;52.110;5.548;2022-08-11T23:36:28;27.10;55.50
24744;DHT22;12844;52.110;5.548;2022-08-11T23:39:13;27.10;55.50
24744;DHT22;12844;52.110;5.548;2022-08-11T23:41:57;27.10;55.40
24744;DHT22;12844;52.110;5.548;2022-08-11T23:44:41;27.10;55.40
24744;DHT22;12844;52.110;5.548;2022-08-11T23:47:25;27.10;55.40
24744;DHT22;12844;52.110;5.548;2022-08-11T23:50:10;27.10;55.40
24744;DHT22;12844;52.110;5.548;2022-08-11T23:52:55;27.10;55.40
24744;DHT22;12844;52.110;5.548;2022-08-11T23:55:40;27.10;55.40
24744;DHT22;12844;52.110;5.548;2022-08-11T23:58:25;27.10;55.40
